Time;durP1;ratioP1;P1;durP2;ratioP2;P2;SDS_P1;SDS_P2;PMS_P1;PMS_P2;Temp;Humidity;BMP_temperature;BMP_pressure;BME280_temperature;BME280_humidity;BME280_pressure;Samples;Min_cycle;Max_cycle;Signal;HPM_P1;HPM_P2
2022/05/16 00:01:59;;;;;;;44.83;14.77;;;;;;;;;;5098112;28;20115;-67
2022/05/16 00:04:24;;;;;;;43.15;14.40;;;;;;;;;;5112541;28;20177;-68
2022/05/16 00:06:49;;;;;;;41.05;14.73;;;;;;;;;;5105409;28;20515;-68
2022/05/16 00:09:28;;;;;;;42.00;14.85;;;;;;;;;;5110894;28;20028;-68
2022/05/16 00:11:53;;;;;;;50.08;15.93;;;;;;;;;;5102069;28;20535;-68
2022/05/16 00:14:19;;;;;;;52.55;16.63;;;;;;;;;;5105979;28;20091;-68
2022/05/16 00:16:58;;;;;;;52.72;16.25;;;;;;;;;;5104316;28;20034;-68
2022/05/16 00:19:23;;;;;;;44.20;15.68;;;;;;;;;;5114102;28;20107;-68
2022/05/16 00:21:49;;;;;;;49.88;15.20;;;;;;;;;;5107753;28;20102;-68
2022/05/16 00:24:28;;;;;;;42.10;15.65;;;;;;;;;;5110746;28;20028;-67
2022/05/16 00:26:54;;;;;;;48.90;16.63;;;;;;;;;;5103057;28;20032;-68
2022/05/16 00:29:20;;;;;;;53.15;17.50;;;;;;;;;;5109868;28;20044;-68
2022/05/16 00:31:59;;;;;;;56.63;17.80;;;;;;;;;;5102907;28;20038;-68
2022/05/16 00:34:24;;;;;;;78.95;16.55;;;;;;;;;;5111946;28;20027;-68
2022/05/16 00:36:50;;;;;;;69.72;16.27;;;;;;;;;;5113765;28;20372;-68
2022/05/16 00:39:29;;;;;;;64.57;15.75;;;;;;;;;;5110699;28;20047;-68
2022/05/16 00:41:54;;;;;;;48.13;15.38;;;;;;;;;;5103286;28;20039;-68
2022/05/16 00:44:20;;;;;;;50.15;15.27;;;;;;;;;;5111863;28;20023;-68
2022/05/16 00:46:59;;;;;;;57.45;16.60;;;;;;;;;;5105313;28;20370;-67
2022/05/16 00:49:29;;;;;;;48.15;15.25;;;;;;;;;;5108630;28;20039;-68
2022/05/16 00:52:12;;;;;;;49.05;15.93;;;;;;;;;;5100892;28;20482;-68
2022/05/16 00:54:37;;;;;;;52.05;15.93;;;;;;;;;;5103664;28;20494;-68
2022/05/16 00:57:19;;;;;;;52.60;17.65;;;;;;;;;;5104751;28;20040;-68
2022/05/16 00:59:51;;;;;;;67.75;22.08;;;;;;;;;;5099775;28;20074;-68
2022/05/16 01:05:13;;;;;;;66.25;20.08;;;;;;;;;;5106311;28;20074;-68
2022/05/16 01:07:52;;;;;;;59.38;21.17;;;;;;;;;;5106316;28;20048;-67
2022/05/16 01:10:19;;;;;;;74.25;22.50;;;;;;;;;;5102950;28;20032;-68
2022/05/16 01:12:45;;;;;;;64.78;21.80;;;;;;;;;;5111753;28;20027;-68
2022/05/16 01:15:34;;;;;;;68.00;23.17;;;;;;;;;;5109562;28;20485;-68
2022/05/16 01:17:59;;;;;;;70.45;23.52;;;;;;;;;;5108399;28;20039;-68
2022/05/16 01:23:57;;;;;;;70.35;23.00;;;;;;;;;;5106336;28;20085;-68
2022/05/16 01:26:24;;;;;;;75.53;25.15;;;;;;;;;;5112215;28;20034;-68
2022/05/16 01:28:50;;;;;;;75.45;25.33;;;;;;;;;;5111065;28;20023;-68
2022/05/16 01:31:15;;;;;;;82.28;25.10;;;;;;;;;;5104255;28;20051;-68
2022/05/16 01:33:41;;;;;;;83.00;24.85;;;;;;;;;;5105583;28;20027;-68
2022/05/16 01:36:06;;;;;;;89.32;25.85;;;;;;;;;;5098750;28;20035;-68
2022/05/16 01:38:32;;;;;;;124.85;27.65;;;;;;;;;;5106288;28;20469;-68
2022/05/16 01:41:05;;;;;;;103.30;25.20;;;;;;;;;;5102228;28;20028;-68
2022/05/16 01:43:35;;;;;;;95.97;24.98;;;;;;;;;;5107714;28;20023;-68
2022/05/16 01:46:00;;;;;;;80.22;23.35;;;;;;;;;;5108853;28;20027;-68
2022/05/16 01:48:29;;;;;;;173.50;25.25;;;;;;;;;;5114654;28;20039;-67
2022/05/16 01:50:57;;;;;;;86.35;23.45;;;;;;;;;;5112559;28;20527;-68
2022/05/16 01:53:22;;;;;;;115.45;25.92;;;;;;;;;;5116204;28;20036;-68
2022/05/16 01:55:47;;;;;;;84.90;23.98;;;;;;;;;;5109885;28;20035;-68
2022/05/16 01:58:12;;;;;;;100.40;24.70;;;;;;;;;;5113780;28;20455;-68
2022/05/16 02:00:38;;;;;;;126.60;24.67;;;;;;;;;;5109911;28;20027;-68
2022/05/16 02:03:05;;;;;;;101.22;24.60;;;;;;;;;;5115443;28;20436;-68
2022/05/16 02:05:31;;;;;;;106.55;25.48;;;;;;;;;;5114285;28;20047;-68
2022/05/16 02:07:56;;;;;;;105.00;24.23;;;;;;;;;;5110913;28;20058;-68
2022/05/16 02:10:23;;;;;;;82.75;21.95;;;;;;;;;;5111144;28;20059;-67
2022/05/16 02:12:48;;;;;;;85.75;23.13;;;;;;;;;;5103573;28;20020;-68
2022/05/16 02:15:18;;;;;;;113.82;26.60;;;;;;;;;;5116469;28;20179;-68
2022/05/16 02:17:44;;;;;;;138.05;27.38;;;;;;;;;;5104993;28;20039;-68
2022/05/16 02:20:10;;;;;;;127.68;28.63;;;;;;;;;;5115773;28;20102;-68
2022/05/16 02:25:19;;;;;;;220.52;28.17;;;;;;;;;;5103929;28;20042;-68
2022/05/16 02:27:46;;;;;;;159.27;30.52;;;;;;;;;;5108886;28;20031;-68
2022/05/16 02:33:27;;;;;;;177.40;31.30;;;;;;;;;;5104555;28;20035;-68
2022/05/16 02:35:52;;;;;;;137.20;28.02;;;;;;;;;;5111739;28;20052;-68
2022/05/16 02:38:18;;;;;;;133.50;27.35;;;;;;;;;;5106159;28;20032;-68
2022/05/16 02:40:43;;;;;;;137.50;27.83;;;;;;;;;;5113742;28;20103;-68
2022/05/16 02:43:09;;;;;;;126.05;29.80;;;;;;;;;;5105837;28;20039;-68
2022/05/16 02:45:34;;;;;;;150.60;30.00;;;;;;;;;;5113622;28;20471;-68
2022/05/16 02:48:00;;;;;;;239.52;32.65;;;;;;;;;;5106800;28;20031;-68
2022/05/16 02:50:25;;;;;;;173.88;28.75;;;;;;;;;;5104850;28;20031;-68
2022/05/16 02:52:51;;;;;;;110.60;26.27;;;;;;;;;;5107658;28;20023;-68
2022/05/16 02:55:16;;;;;;;101.78;27.90;;;;;;;;;;5105758;28;20511;-68
2022/05/16 02:57:42;;;;;;;115.88;28.90;;;;;;;;;;5114538;28;20088;-68
2022/05/16 03:00:09;;;;;;;113.25;25.92;;;;;;;;;;5111842;28;20073;-68
2022/05/16 03:02:35;;;;;;;96.15;27.08;;;;;;;;;;5111720;28;20015;-68
2022/05/16 03:05:00;;;;;;;100.57;25.65;;;;;;;;;;5108357;28;20528;-68
2022/05/16 03:07:25;;;;;;;105.68;27.05;;;;;;;;;;5110813;28;20027;-68
2022/05/16 03:09:50;;;;;;;102.63;25.00;;;;;;;;;;5110872;28;20364;-68
2022/05/16 03:12:16;;;;;;;85.40;24.73;;;;;;;;;;5114577;28;20032;-68
2022/05/16 03:14:41;;;;;;;132.60;25.63;;;;;;;;;;5115163;28;20465;-68
2022/05/16 03:17:06;;;;;;;314.27;30.02;;;;;;;;;;5103886;28;20040;-68
2022/05/16 03:19:34;;;;;;;65.68;21.95;;;;;;;;;;5113708;28;20036;-68
2022/05/16 03:21:59;;;;;;;91.43;24.90;;;;;;;;;;5104818;28;20383;-68
2022/05/16 03:24:24;;;;;;;92.35;26.55;;;;;;;;;;5112205;28;20019;-68
2022/05/16 03:26:50;;;;;;;90.38;28.33;;;;;;;;;;5098892;28;20028;-68
2022/05/16 03:29:16;;;;;;;101.93;30.30;;;;;;;;;;5114194;28;20027;-68
2022/05/16 03:31:42;;;;;;;102.22;31.40;;;;;;;;;;5100821;28;20024;-68
2022/05/16 03:34:09;;;;;;;92.70;30.15;;;;;;;;;;5114502;28;20027;-68
2022/05/16 03:36:34;;;;;;;83.55;28.38;;;;;;;;;;5104519;28;20043;-68
2022/05/16 03:41:44;;;;;;;;;;;;;;;;;;5106884;28;20506;-68
2022/05/16 03:44:10;;;;;;;362.73;34.28;;;;;;;;;;5114395;28;20343;-68
2022/05/16 03:46:36;;;;;;;187.90;33.85;;;;;;;;;;5112176;28;20279;-68
2022/05/16 03:49:01;;;;;;;215.45;33.88;;;;;;;;;;5114757;28;20019;-68
2022/05/16 03:51:26;;;;;;;255.32;37.40;;;;;;;;;;5112260;28;20104;-68
2022/05/16 03:53:51;;;;;;;148.32;34.67;;;;;;;;;;5111431;28;20065;-68
2022/05/16 03:56:19;;;;;;;165.95;34.78;;;;;;;;;;5111662;28;20073;-68
2022/05/16 03:58:44;;;;;;;155.98;37.22;;;;;;;;;;5113973;28;20459;-68
2022/05/16 04:01:09;;;;;;;185.27;38.97;;;;;;;;;;5103190;28;20059;-68
2022/05/16 04:03:35;;;;;;;334.35;41.13;;;;;;;;;;5114686;28;20049;-68
2022/05/16 04:06:00;;;;;;;164.48;34.78;;;;;;;;;;5110521;28;20391;-68
2022/05/16 04:08:26;;;;;;;227.13;35.33;;;;;;;;;;5114001;28;20031;-68
2022/05/16 04:10:51;;;;;;;205.77;35.30;;;;;;;;;;5100668;28;20020;-68
2022/05/16 04:13:16;;;;;;;171.45;33.13;;;;;;;;;;5106937;28;20459;-68
2022/05/16 04:15:42;;;;;;;180.00;31.27;;;;;;;;;;5103324;28;20088;-68
2022/05/16 04:18:07;;;;;;;194.95;33.90;;;;;;;;;;5114191;28;20035;-68
2022/05/16 04:20:32;;;;;;;159.68;33.45;;;;;;;;;;5105457;28;20019;-68
2022/05/16 04:22:58;;;;;;;171.27;35.55;;;;;;;;;;5107719;28;20032;-68
2022/05/16 04:25:23;;;;;;;141.10;31.50;;;;;;;;;;5107994;28;20406;-68
2022/05/16 04:27:49;;;;;;;173.35;35.45;;;;;;;;;;5110184;28;20027;-68
2022/05/16 04:30:14;;;;;;;290.98;37.40;;;;;;;;;;5111320;28;20038;-68
2022/05/16 04:32:40;;;;;;;213.68;33.28;;;;;;;;;;5112377;28;20015;-68
2022/05/16 04:35:05;;;;;;;174.75;34.00;;;;;;;;;;5113478;28;20043;-68
2022/05/16 04:37:32;;;;;;;159.50;34.70;;;;;;;;;;5105142;28;20379;-68
2022/05/16 04:40:01;;;;;;;157.05;33.38;;;;;;;;;;5113197;28;20047;-68
2022/05/16 04:42:41;;;;;;;140.35;32.65;;;;;;;;;;5100407;28;20467;-68
2022/05/16 04:45:15;;;;;;;137.93;33.40;;;;;;;;;;5103310;28;20036;-68
2022/05/16 04:47:40;;;;;;;134.00;31.42;;;;;;;;;;5104915;28;20019;-68
2022/05/16 04:50:06;;;;;;;233.10;33.30;;;;;;;;;;5111546;28;20032;-68
2022/05/16 04:52:32;;;;;;;201.25;34.10;;;;;;;;;;5104493;28;20063;-68
2022/05/16 04:54:58;;;;;;;152.57;31.20;;;;;;;;;;5102518;28;20111;-68
2022/05/16 04:57:23;;;;;;;153.15;32.33;;;;;;;;;;5106365;28;20115;-68
2022/05/16 04:59:49;;;;;;;138.85;30.48;;;;;;;;;;5108091;28;20027;-68
2022/05/16 05:02:15;;;;;;;133.32;32.47;;;;;;;;;;5108164;28;20039;-68
2022/05/16 05:04:40;;;;;;;129.90;31.85;;;;;;;;;;5106699;28;20031;-68
2022/05/16 05:07:06;;;;;;;109.45;30.17;;;;;;;;;;5109784;28;20459;-68
2022/05/16 05:09:31;;;;;;;126.63;30.58;;;;;;;;;;5103153;28;20456;-68
2022/05/16 05:14:42;;;;;;;138.57;30.90;;;;;;;;;;5106188;28;20030;-68
2022/05/16 05:17:10;;;;;;;121.90;29.73;;;;;;;;;;5104660;28;20119;-68
2022/05/16 05:19:36;;;;;;;104.03;31.88;;;;;;;;;;5111349;28;20034;-68
2022/05/16 05:22:03;;;;;;;101.90;30.55;;;;;;;;;;5108011;28;20102;-68
2022/05/16 05:24:29;;;;;;;100.47;30.15;;;;;;;;;;5114755;28;20035;-68
2022/05/16 05:26:54;;;;;;;82.18;26.60;;;;;;;;;;5102686;28;20023;-68
2022/05/16 05:29:20;;;;;;;80.13;27.55;;;;;;;;;;5112608;28;20020;-68
2022/05/16 05:31:46;;;;;;;84.43;27.90;;;;;;;;;;5102664;28;20034;-68
2022/05/16 05:34:11;;;;;;;80.75;28.05;;;;;;;;;;5113752;28;20433;-68
2022/05/16 05:36:38;;;;;;;84.63;25.75;;;;;;;;;;5103185;28;20040;-68
2022/05/16 05:39:03;;;;;;;73.45;26.90;;;;;;;;;;5112071;28;20042;-68
2022/05/16 05:41:29;;;;;;;87.95;27.30;;;;;;;;;;5105546;28;20024;-68
2022/05/16 05:43:54;;;;;;;68.82;24.80;;;;;;;;;;5116712;28;20038;-68
2022/05/16 05:46:20;;;;;;;73.15;26.60;;;;;;;;;;5111810;28;20040;-68
2022/05/16 05:48:45;;;;;;;64.07;24.27;;;;;;;;;;5117392;28;20015;-68
2022/05/16 05:51:11;;;;;;;61.67;22.90;;;;;;;;;;5109958;28;20069;-68
2022/05/16 05:53:37;;;;;;;61.97;23.70;;;;;;;;;;5110225;28;20031;-68
2022/05/16 05:56:04;;;;;;;51.33;21.55;;;;;;;;;;5112018;28;20042;-68
2022/05/16 05:58:29;;;;;;;52.92;20.75;;;;;;;;;;5116825;28;20364;-68
2022/05/16 06:00:54;;;;;;;39.63;17.13;;;;;;;;;;5104721;28;20084;-68
2022/05/16 06:03:20;;;;;;;44.33;17.35;;;;;;;;;;5105988;28;20095;-67
2022/05/16 06:05:45;;;;;;;43.42;17.17;;;;;;;;;;5114242;28;20020;-68
2022/05/16 06:08:11;;;;;;;39.75;15.60;;;;;;;;;;5106230;28;20387;-68
2022/05/16 06:10:36;;;;;;;40.22;14.50;;;;;;;;;;5102534;28;20081;-68
2022/05/16 06:13:01;;;;;;;34.80;14.65;;;;;;;;;;5107522;28;20015;-68
2022/05/16 06:15:26;;;;;;;36.13;14.07;;;;;;;;;;5115886;28;20028;-68
2022/05/16 06:17:52;;;;;;;32.10;13.43;;;;;;;;;;5109093;28;20031;-68
2022/05/16 06:20:17;;;;;;;32.20;13.95;;;;;;;;;;5101330;28;20066;-68
2022/05/16 06:22:42;;;;;;;30.67;13.43;;;;;;;;;;5110130;28;20031;-68
2022/05/16 06:27:54;;;;;;;31.27;12.98;;;;;;;;;;5107197;28;20770;-68
2022/05/16 06:30:19;;;;;;;27.65;12.10;;;;;;;;;;5116481;28;20028;-68
2022/05/16 06:32:45;;;;;;;23.95;11.13;;;;;;;;;;5115978;28;20020;-68
2022/05/16 06:35:11;;;;;;;29.27;11.60;;;;;;;;;;5103135;28;20039;-68
2022/05/16 06:37:36;;;;;;;22.77;11.25;;;;;;;;;;5116117;28;20028;-68
2022/05/16 06:40:01;;;;;;;26.60;10.57;;;;;;;;;;5115773;28;20023;-68
2022/05/16 06:42:27;;;;;;;18.77;10.05;;;;;;;;;;5104623;28;20023;-68
2022/05/16 06:44:53;;;;;;;21.73;10.00;;;;;;;;;;5114560;28;20459;-68
2022/05/16 06:47:18;;;;;;;28.30;9.98;;;;;;;;;;5102986;28;20032;-68
2022/05/16 06:49:43;;;;;;;19.27;9.60;;;;;;;;;;5115385;28;20024;-68
2022/05/16 06:52:09;;;;;;;22.52;10.35;;;;;;;;;;5110765;28;20032;-68
2022/05/16 06:54:34;;;;;;;20.23;10.40;;;;;;;;;;5105325;28;20076;-68
2022/05/16 06:56:59;;;;;;;22.88;9.10;;;;;;;;;;5116000;28;20016;-68
2022/05/16 06:59:24;;;;;;;26.00;9.82;;;;;;;;;;5113217;28;20084;-68
2022/05/16 07:01:50;;;;;;;22.35;10.30;;;;;;;;;;5115906;28;20047;-68
2022/05/16 07:04:15;;;;;;;22.38;9.02;;;;;;;;;;5115946;28;20015;-68
2022/05/16 07:06:41;;;;;;;19.95;9.10;;;;;;;;;;5115315;28;20035;-68
2022/05/16 07:09:06;;;;;;;19.27;9.38;;;;;;;;;;5109666;28;20411;-68
2022/05/16 07:11:32;;;;;;;24.25;9.57;;;;;;;;;;5110845;28;20352;-68
2022/05/16 07:13:58;;;;;;;17.27;8.57;;;;;;;;;;5115562;28;20031;-68
2022/05/16 07:16:23;;;;;;;23.45;9.60;;;;;;;;;;5095110;28;20876;-68
2022/05/16 07:18:48;;;;;;;17.92;9.65;;;;;;;;;;5106866;28;20066;-68
2022/05/16 07:21:14;;;;;;;18.67;8.88;;;;;;;;;;5115124;28;20040;-68
2022/05/16 07:23:39;;;;;;;17.48;9.15;;;;;;;;;;5114680;28;20023;-68
2022/05/16 07:28:48;;;;;;;23.63;8.85;;;;;;;;;;5107917;28;20116;-68
2022/05/16 07:31:13;;;;;;;20.88;9.15;;;;;;;;;;5106110;28;20498;-68
2022/05/16 07:33:39;;;;;;;21.80;9.20;;;;;;;;;;5109708;28;20031;-68
2022/05/16 07:36:05;;;;;;;16.40;7.90;;;;;;;;;;5109750;28;20071;-68
2022/05/16 07:38:30;;;;;;;19.02;7.82;;;;;;;;;;5103295;28;20058;-68
2022/05/16 07:40:56;;;;;;;18.00;7.80;;;;;;;;;;5104001;28;20028;-68
2022/05/16 07:43:22;;;;;;;16.73;7.90;;;;;;;;;;5108605;28;20016;-67
2022/05/16 07:45:47;;;;;;;19.05;7.97;;;;;;;;;;5085582;28;20855;-68
2022/05/16 07:48:13;;;;;;;13.68;7.85;;;;;;;;;;5097154;28;20051;-68
2022/05/16 07:50:39;;;;;;;21.63;8.57;;;;;;;;;;5100696;28;20015;-68
2022/05/16 07:53:11;;;;;;;22.20;7.88;;;;;;;;;;5109386;28;20038;-68
2022/05/16 07:55:36;;;;;;;14.02;6.63;;;;;;;;;;5098420;28;20789;-68
2022/05/16 07:58:02;;;;;;;17.77;6.40;;;;;;;;;;5107024;28;20031;-68
2022/05/16 08:00:27;;;;;;;10.88;6.00;;;;;;;;;;5101213;28;20035;-68
2022/05/16 08:02:53;;;;;;;13.20;5.93;;;;;;;;;;5106791;28;20118;-68
2022/05/16 08:05:18;;;;;;;17.13;6.07;;;;;;;;;;5110677;28;20443;-68
2022/05/16 08:10:31;;;;;;;10.45;5.22;;;;;;;;;;5105154;28;20074;-68
2022/05/16 08:13:04;;;;;;;15.07;5.70;;;;;;;;;;5110136;28;20068;-68
2022/05/16 08:15:30;;;;;;;13.73;5.40;;;;;;;;;;5109261;28;20115;-68
2022/05/16 08:17:55;;;;;;;11.48;5.45;;;;;;;;;;5109020;28;20122;-68
2022/05/16 08:20:21;;;;;;;15.90;5.22;;;;;;;;;;5107595;28;20019;-68
2022/05/16 08:22:46;;;;;;;13.77;5.53;;;;;;;;;;5109038;28;20038;-68
2022/05/16 08:25:13;;;;;;;23.42;9.07;;;;;;;;;;5102474;28;20039;-68
2022/05/16 08:27:39;;;;;;;14.07;6.20;;;;;;;;;;5102515;28;20027;-68
2022/05/16 08:30:04;;;;;;;18.60;5.93;;;;;;;;;;5109382;28;20386;-68
2022/05/16 08:32:30;;;;;;;15.13;5.22;;;;;;;;;;5096785;28;20054;-68
2022/05/16 08:34:59;;;;;;;17.75;5.68;;;;;;;;;;5108366;28;20044;-69
2022/05/16 08:40:09;;;;;;;14.35;5.20;;;;;;;;;;5095593;28;20065;-68
2022/05/16 08:42:34;;;;;;;14.05;4.95;;;;;;;;;;5098293;28;20043;-68
2022/05/16 08:45:01;;;;;;;15.13;5.15;;;;;;;;;;5095954;28;20024;-69
2022/05/16 08:47:36;;;;;;;16.48;5.35;;;;;;;;;;5101676;28;20023;-68
2022/05/16 08:50:04;;;;;;;13.18;4.68;;;;;;;;;;5104328;28;20889;-68
2022/05/16 08:52:36;;;;;;;11.82;4.32;;;;;;;;;;5095676;28;20016;-68
2022/05/16 08:55:04;;;;;;;10.15;4.53;;;;;;;;;;5104433;28;20032;-68
2022/05/16 08:57:36;;;;;;;13.55;4.20;;;;;;;;;;5106636;28;20023;-69
2022/05/16 09:00:21;;;;;;;11.23;4.07;;;;;;;;;;5108243;28;20390;-68
2022/05/16 09:02:48;;;;;;;11.73;4.22;;;;;;;;;;5066427;28;20127;-69
2022/05/16 09:05:17;;;;;;;10.77;3.55;;;;;;;;;;5110105;28;20027;-68
2022/05/16 09:07:47;;;;;;;11.77;4.00;;;;;;;;;;5106538;28;20020;-68
2022/05/16 09:10:17;;;;;;;13.80;4.30;;;;;;;;;;5105693;28;20034;-68
2022/05/16 09:13:01;;;;;;;9.57;3.22;;;;;;;;;;5109267;28;20495;-68
2022/05/16 09:15:30;;;;;;;15.10;3.35;;;;;;;;;;5109350;28;20038;-68
2022/05/16 09:18:07;;;;;;;8.48;2.92;;;;;;;;;;5098291;28;20102;-68
2022/05/16 09:21:03;;;;;;;12.20;3.78;;;;;;;;;;5094008;28;20027;-69
2022/05/16 09:23:48;;;;;;;12.48;3.00;;;;;;;;;;5081654;28;20123;-68
2022/05/16 09:26:17;;;;;;;8.35;3.03;;;;;;;;;;5108592;28;20044;-68
2022/05/16 09:28:49;;;;;;;12.45;3.08;;;;;;;;;;5094864;28;20024;-68
2022/05/16 09:31:14;;;;;;;8.30;2.95;;;;;;;;;;5105696;28;20036;-68
2022/05/16 09:33:46;;;;;;;8.77;2.70;;;;;;;;;;5109977;28;20035;-68
2022/05/16 09:36:13;;;;;;;5.63;2.33;;;;;;;;;;5094748;28;20043;-68
2022/05/16 09:38:43;;;;;;;7.82;2.33;;;;;;;;;;5103037;28;20051;-68
2022/05/16 09:41:23;;;;;;;9.07;2.60;;;;;;;;;;5108364;28;20028;-68
2022/05/16 09:43:56;;;;;;;9.63;2.30;;;;;;;;;;5109244;28;20031;-69
2022/05/16 09:46:21;;;;;;;10.98;2.55;;;;;;;;;;5099339;28;20038;-69
2022/05/16 09:48:54;;;;;;;9.02;2.22;;;;;;;;;;5092326;28;20023;-69
2022/05/16 09:51:20;;;;;;;13.85;2.90;;;;;;;;;;5099689;28;20024;-68
2022/05/16 09:53:45;;;;;;;7.13;2.15;;;;;;;;;;5104172;28;20348;-69
2022/05/16 09:56:28;;;;;;;9.38;2.17;;;;;;;;;;5102618;28;20020;-69
2022/05/16 09:58:55;;;;;;;7.35;2.22;;;;;;;;;;5107390;28;20035;-68
2022/05/16 10:01:33;;;;;;;9.57;2.08;;;;;;;;;;5095441;28;20126;-68
2022/05/16 10:04:08;;;;;;;9.32;2.20;;;;;;;;;;5107892;28;20034;-68
2022/05/16 10:06:36;;;;;;;7.93;2.15;;;;;;;;;;5109175;28;20035;-68
2022/05/16 10:09:06;;;;;;;6.93;2.20;;;;;;;;;;5106287;28;20059;-68
2022/05/16 10:11:32;;;;;;;8.45;2.22;;;;;;;;;;5107643;28;20036;-68
2022/05/16 10:13:57;;;;;;;11.68;2.60;;;;;;;;;;5112571;28;20160;-69
2022/05/16 10:16:25;;;;;;;9.35;2.20;;;;;;;;;;5112237;28;20530;-68
2022/05/16 10:18:52;;;;;;;7.93;2.33;;;;;;;;;;5112193;28;20031;-69
2022/05/16 10:21:23;;;;;;;8.23;1.83;;;;;;;;;;5112975;28;20041;-69
2022/05/16 10:23:50;;;;;;;6.40;2.08;;;;;;;;;;5112663;28;20467;-68
2022/05/16 10:26:20;;;;;;;10.90;2.30;;;;;;;;;;5107647;28;20039;-69
2022/05/16 10:28:49;;;;;;;7.60;1.77;;;;;;;;;;5112454;28;20024;-68
2022/05/16 10:34:07;;;;;;;9.70;1.80;;;;;;;;;;5111339;28;20035;-68
2022/05/16 10:36:33;;;;;;;6.53;1.77;;;;;;;;;;5110215;28;20063;-68
2022/05/16 10:39:06;;;;;;;7.75;1.70;;;;;;;;;;5104571;28;20477;-68
2022/05/16 10:41:35;;;;;;;8.25;2.50;;;;;;;;;;5106606;28;20020;-69
2022/05/16 10:44:10;;;;;;;11.77;2.15;;;;;;;;;;5103102;28;20024;-68
2022/05/16 10:46:39;;;;;;;8.70;2.00;;;;;;;;;;5111677;28;20099;-68
2022/05/16 10:49:12;;;;;;;8.63;2.20;;;;;;;;;;5104673;28;20016;-69
2022/05/16 10:51:43;;;;;;;8.50;1.77;;;;;;;;;;5099415;28;20494;-69
2022/05/16 10:54:10;;;;;;;7.63;2.00;;;;;;;;;;5111643;28;20145;-68
2022/05/16 10:56:48;;;;;;;7.93;2.15;;;;;;;;;;5112677;28;20028;-68
2022/05/16 10:59:14;;;;;;;6.80;1.45;;;;;;;;;;5112222;28;20040;-69
2022/05/16 11:01:52;;;;;;;7.30;1.63;;;;;;;;;;5112245;28;20060;-68
2022/05/16 11:04:20;;;;;;;5.95;1.95;;;;;;;;;;5111486;28;20034;-68
2022/05/16 11:06:45;;;;;;;8.95;2.33;;;;;;;;;;5100409;28;20035;-68
2022/05/16 11:09:30;;;;;;;10.55;1.80;;;;;;;;;;5100733;28;20027;-68
2022/05/16 11:12:00;;;;;;;9.25;1.92;;;;;;;;;;5096570;28;20058;-68
2022/05/16 11:14:28;;;;;;;8.00;1.85;;;;;;;;;;5101712;28;20127;-68
2022/05/16 11:16:55;;;;;;;10.35;2.35;;;;;;;;;;5108750;28;20030;-68
2022/05/16 11:19:21;;;;;;;9.07;1.50;;;;;;;;;;5111196;28;20036;-68
2022/05/16 11:21:56;;;;;;;10.00;2.00;;;;;;;;;;5109444;28;20027;-68
2022/05/16 11:24:42;;;;;;;11.50;2.05;;;;;;;;;;5110828;28;20031;-68
2022/05/16 11:27:26;;;;;;;10.27;2.10;;;;;;;;;;5105643;28;20028;-68
2022/05/16 11:30:11;;;;;;;10.75;2.22;;;;;;;;;;5107393;28;20486;-68
2022/05/16 11:32:56;;;;;;;11.82;1.65;;;;;;;;;;5110541;28;20519;-68
2022/05/16 11:35:27;;;;;;;7.97;1.48;;;;;;;;;;5110987;28;20062;-68
2022/05/16 11:37:55;;;;;;;9.10;1.83;;;;;;;;;;5111834;28;20096;-68
2022/05/16 11:40:20;;;;;;;10.98;2.40;;;;;;;;;;5110961;28;20032;-68
2022/05/16 11:42:48;;;;;;;9.10;1.58;;;;;;;;;;5108434;28;20069;-68
2022/05/16 11:45:23;;;;;;;9.30;2.00;;;;;;;;;;5110550;28;20066;-68
2022/05/16 11:47:51;;;;;;;10.27;2.67;;;;;;;;;;5099774;28;20028;-68
2022/05/16 11:50:27;;;;;;;7.82;2.20;;;;;;;;;;5101304;28;20034;-69
2022/05/16 11:53:02;;;;;;;10.55;2.13;;;;;;;;;;5093912;28;20895;-68
2022/05/16 12:01:07;;;;;;;7.03;1.83;;;;;;;;;;5102679;28;21266;-68
2022/05/16 12:03:41;;;;;;;10.38;2.20;;;;;;;;;;5109657;28;20024;-68
2022/05/16 12:06:14;;;;;;;7.78;1.70;;;;;;;;;;5111941;28;20028;-68
2022/05/16 12:08:40;;;;;;;9.38;1.92;;;;;;;;;;5107180;28;20028;-68
2022/05/16 12:11:05;;;;;;;10.05;2.80;;;;;;;;;;5107528;28;20038;-68
2022/05/16 12:13:33;;;;;;;9.77;2.45;;;;;;;;;;5108937;28;20011;-68
2022/05/16 12:16:25;;;;;;;8.13;2.38;;;;;;;;;;5100915;28;20060;-68
2022/05/16 12:19:10;;;;;;;8.20;2.45;;;;;;;;;;5051868;28;20032;-68
2022/05/16 12:21:36;;;;;;;11.50;2.58;;;;;;;;;;5097290;28;20150;-69
2022/05/16 12:24:05;;;;;;;12.13;2.60;;;;;;;;;;5102747;28;20097;-68
2022/05/16 12:26:39;;;;;;;12.07;2.28;;;;;;;;;;5089594;28;20023;-69
2022/05/16 12:29:08;;;;;;;15.45;2.50;;;;;;;;;;5085326;28;20490;-68
2022/05/16 12:31:40;;;;;;;16.23;3.05;;;;;;;;;;5101042;28;20032;-68
2022/05/16 12:34:06;;;;;;;10.77;2.58;;;;;;;;;;5103844;28;20032;-69
2022/05/16 12:36:31;;;;;;;11.90;3.20;;;;;;;;;;5099495;28;20044;-69
2022/05/16 12:38:58;;;;;;;7.93;2.10;;;;;;;;;;5109610;28;20035;-69
2022/05/16 12:41:51;;;;;;;9.43;2.33;;;;;;;;;;5099945;28;20024;-69
2022/05/16 12:44:35;;;;;;;8.63;1.60;;;;;;;;;;5060210;28;20105;-68
2022/05/16 12:47:01;;;;;;;7.82;2.10;;;;;;;;;;5099127;28;20040;-69
2022/05/16 12:49:26;;;;;;;5.20;1.60;;;;;;;;;;5109624;28;20035;-68
2022/05/16 12:51:53;;;;;;;10.25;2.17;;;;;;;;;;5106721;28;20056;-68
2022/05/16 12:54:30;;;;;;;6.75;2.00;;;;;;;;;;5108272;28;20073;-68
2022/05/16 12:56:57;;;;;;;9.85;2.00;;;;;;;;;;5108746;28;20055;-68
2022/05/16 12:59:47;;;;;;;8.45;1.85;;;;;;;;;;5101930;28;20220;-69
2022/05/16 13:02:13;;;;;;;9.52;2.08;;;;;;;;;;5096864;28;20035;-69
2022/05/16 13:05:05;;;;;;;10.57;2.05;;;;;;;;;;5104154;28;20064;-69
2022/05/16 13:07:39;;;;;;;9.05;2.08;;;;;;;;;;5103136;28;20039;-68
2022/05/16 13:10:07;;;;;;;10.15;1.80;;;;;;;;;;5103624;28;20044;-68
2022/05/16 13:12:40;;;;;;;11.48;1.95;;;;;;;;;;5098243;28;20645;-68
2022/05/16 13:15:15;;;;;;;14.52;2.08;;;;;;;;;;5102982;28;20036;-68
2022/05/16 13:17:49;;;;;;;12.40;2.13;;;;;;;;;;5109262;28;20058;-68
2022/05/16 13:20:20;;;;;;;9.15;1.70;;;;;;;;;;5105068;28;20110;-68
2022/05/16 13:22:48;;;;;;;8.95;2.05;;;;;;;;;;5109101;28;20059;-68
2022/05/16 13:25:14;;;;;;;10.65;2.55;;;;;;;;;;5106555;28;20363;-68
2022/05/16 13:30:24;;;;;;;15.65;2.40;;;;;;;;;;5107715;28;20084;-69
2022/05/16 13:32:49;;;;;;;14.30;2.00;;;;;;;;;;5104216;28;20084;-68
2022/05/16 13:35:25;;;;;;;8.55;1.88;;;;;;;;;;5109261;28;20055;-69
2022/05/16 13:37:51;;;;;;;10.00;1.70;;;;;;;;;;5098833;28;20040;-68
2022/05/16 13:40:23;;;;;;;11.57;1.88;;;;;;;;;;5105523;28;20486;-68
2022/05/16 13:42:48;;;;;;;8.52;1.60;;;;;;;;;;5104321;28;20344;-68
2022/05/16 13:45:14;;;;;;;10.02;2.10;;;;;;;;;;5107480;28;20031;-68
2022/05/16 13:47:41;;;;;;;7.53;1.70;;;;;;;;;;5112227;28;20019;-69
2022/05/16 13:50:08;;;;;;;8.45;1.52;;;;;;;;;;5112776;28;20053;-69
2022/05/16 13:52:40;;;;;;;7.07;1.42;;;;;;;;;;5112635;28;20032;-69
2022/05/16 13:55:08;;;;;;;8.25;1.85;;;;;;;;;;5112920;28;20432;-69
2022/05/16 13:57:34;;;;;;;10.57;1.48;;;;;;;;;;5112834;28;20035;-68
2022/05/16 14:00:14;;;;;;;6.28;1.40;;;;;;;;;;5113658;28;20032;-68
2022/05/16 14:02:41;;;;;;;5.55;1.42;;;;;;;;;;5112648;28;20083;-68
2022/05/16 14:05:10;;;;;;;7.32;1.75;;;;;;;;;;5110937;28;20045;-69
2022/05/16 14:07:36;;;;;;;8.20;1.48;;;;;;;;;;5101677;28;20476;-68
2022/05/16 14:10:06;;;;;;;5.63;1.35;;;;;;;;;;5111404;28;20034;-68
2022/05/16 14:12:38;;;;;;;6.15;1.38;;;;;;;;;;5106478;28;20031;-68
2022/05/16 14:15:05;;;;;;;5.88;1.25;;;;;;;;;;5105142;28;20031;-68
2022/05/16 14:17:41;;;;;;;6.22;1.40;;;;;;;;;;5111629;28;20031;-68
2022/05/16 14:20:11;;;;;;;5.53;1.30;;;;;;;;;;5112993;28;20059;-68
2022/05/16 14:22:40;;;;;;;7.30;1.33;;;;;;;;;;5106870;28;20093;-68
2022/05/16 14:25:07;;;;;;;5.25;1.23;;;;;;;;;;5102742;28;20028;-68
2022/05/16 14:27:37;;;;;;;6.10;1.30;;;;;;;;;;5108994;28;20032;-68
2022/05/16 14:30:22;;;;;;;5.10;1.38;;;;;;;;;;5112848;28;20120;-68
2022/05/16 14:32:49;;;;;;;5.78;1.45;;;;;;;;;;5101603;28;20028;-68
2022/05/16 14:35:24;;;;;;;10.45;1.60;;;;;;;;;;5113174;28;20191;-68
2022/05/16 14:37:54;;;;;;;7.57;1.50;;;;;;;;;;5113570;28;20120;-68
2022/05/16 14:40:21;;;;;;;6.22;1.63;;;;;;;;;;5113243;28;20495;-68
2022/05/16 14:42:59;;;;;;;4.70;1.33;;;;;;;;;;5110484;28;20020;-68
2022/05/16 14:46:42;;;;;;;9.32;1.60;;;;;;;;;;5100451;28;20398;-69
2022/05/16 14:48:11;;;;;;;7.00;1.10;;;;;;;;;;5112423;28;20043;-68
2022/05/16 14:50:36;;;;;;;5.53;1.27;;;;;;;;;;5112493;28;20023;-68
2022/05/16 14:53:06;;;;;;;6.90;1.40;;;;;;;;;;5107929;28;20081;-68
2022/05/16 14:55:33;;;;;;;4.90;1.08;;;;;;;;;;5111808;28;20019;-69
2022/05/16 14:58:00;;;;;;;8.10;1.42;;;;;;;;;;5109842;28;20043;-68
2022/05/16 15:05:53;;;;;;;;;;;;;;;;;;5110030;28;20054;-68
2022/05/16 15:08:21;;;;;;;6.13;1.20;;;;;;;;;;5101674;28;19904;-68
2022/05/16 15:10:46;;;;;;;5.10;1.20;;;;;;;;;;5108942;28;20034;-68
2022/05/16 15:13:12;;;;;;;3.03;1.20;;;;;;;;;;5102099;28;20098;-68
2022/05/16 15:15:37;;;;;;;4.75;1.52;;;;;;;;;;5102399;28;20352;-68
2022/05/16 15:18:03;;;;;;;5.82;1.38;;;;;;;;;;5111459;28;20070;-68
2022/05/16 15:20:28;;;;;;;4.68;1.20;;;;;;;;;;5111875;28;20015;-68